createdAt,value
2023-11-30T00:12:47.515Z,66.10
2023-11-30T00:16:32.668Z,64.50
2023-11-30T00:20:23.934Z,70.20
2023-11-30T00:24:26.516Z,62.40
2023-11-30T00:28:28.850Z,57.80
2023-11-30T00:35:53.335Z,63.70
2023-11-30T00:39:55.679Z,59.80
2023-11-30T00:43:38.873Z,64.10
2023-11-30T00:47:14.310Z,59.50
2023-11-30T00:54:58.899Z,45.80
2023-11-30T00:59:00.737Z,49.00
2023-11-30T01:03:03.336Z,37.50
2023-11-30T01:07:05.817Z,32.00
2023-11-30T01:10:51.454Z,37.00
2023-11-30T01:14:46.202Z,38.90
2023-11-30T01:18:28.863Z,39.10
2023-11-30T01:22:20.299Z,29.00
2023-11-30T01:25:52.947Z,30.80
2023-11-30T01:29:55.410Z,24.70
2023-11-30T01:33:57.827Z,23.40
2023-11-30T01:37:38.949Z,18.90
2023-11-30T01:41:10.171Z,16.70
2023-11-30T01:44:52.578Z,16.30
2023-11-30T01:48:45.023Z,30.10
2023-11-30T01:52:10.794Z,30.50
2023-11-30T01:55:15.917Z,36.20
2023-11-30T01:59:01.345Z,36.30
2023-11-30T02:02:36.468Z,37.70
2023-11-30T02:06:07.245Z,39.40
2023-11-30T02:09:49.580Z,44.40
2023-11-30T02:13:35.746Z,50.20
2023-11-30T02:17:07.657Z,53.40
2023-11-30T02:20:50.024Z,59.30
2023-11-30T02:28:15.740Z,58.20
2023-11-30T02:32:01.019Z,58.40
2023-11-30T02:35:43.558Z,62.30
2023-11-30T02:39:45.974Z,62.80
2023-11-30T02:43:38.202Z,60.40
2023-11-30T02:47:20.581Z,59.90
2023-11-30T02:50:43.090Z,58.30
2023-11-30T02:54:28.949Z,62.30
2023-11-30T02:57:58.918Z,56.40
2023-11-30T03:01:42.519Z,59.60
2023-11-30T03:05:05.262Z,63.30
2023-11-30T03:09:07.861Z,52.10
2023-11-30T03:16:45.322Z,39.80
2023-11-30T03:20:47.962Z,48.00
2023-11-30T03:28:32.499Z,50.30
2023-11-30T03:32:14.844Z,43.80
2023-11-30T03:36:17.254Z,45.10
2023-11-30T03:39:59.695Z,45.80
2023-11-30T03:44:00.823Z,40.10
2023-11-30T03:47:43.213Z,42.20
2023-11-30T03:50:53.416Z,35.70
2023-11-30T03:54:56.707Z,28.40
2023-11-30T03:58:38.845Z,20.90
2023-11-30T04:02:33.665Z,16.30
2023-11-30T04:05:59.169Z,15.40
2023-11-30T04:10:01.635Z,15.80
2023-11-30T04:17:26.104Z,15.40
2023-11-30T04:20:46.876Z,17.40
2023-11-30T04:24:32.100Z,18.90
2023-11-30T04:27:57.115Z,14.10
2023-11-30T04:31:09.282Z,14.40
2023-11-30T04:34:31.702Z,15.90
2023-11-30T04:37:39.457Z,15.40
2023-11-30T04:41:04.256Z,14.50
2023-11-30T04:44:46.388Z,13.90
2023-11-30T04:48:11.519Z,12.60
2023-11-30T04:51:34.296Z,13.30
2023-11-30T04:55:07.169Z,12.40
2023-11-30T04:58:14.978Z,12.00
2023-11-30T05:01:28.157Z,13.00
2023-11-30T05:04:32.459Z,12.40
2023-11-30T05:07:37.281Z,12.70
2023-11-30T05:10:59.745Z,11.40
2023-11-30T05:14:04.057Z,12.50
2023-11-30T05:17:08.519Z,12.40
2023-11-30T05:20:16.230Z,11.80
2023-11-30T05:23:18.470Z,12.20
2023-11-30T05:26:23.544Z,12.60
2023-11-30T05:29:25.427Z,13.10
2023-11-30T05:32:48.047Z,15.00
2023-11-30T05:35:53.057Z,12.40
2023-11-30T05:38:55.074Z,13.30
2023-11-30T05:42:00.245Z,11.90
2023-11-30T05:45:09.362Z,12.50
2023-11-30T05:48:14.116Z,11.60
2023-11-30T05:51:19.775Z,11.70
2023-11-30T05:54:22.170Z,12.30
2023-11-30T05:57:30.067Z,15.20
2023-11-30T06:00:34.733Z,13.90
2023-11-30T06:03:36.914Z,13.40
2023-11-30T06:06:39.044Z,12.70
2023-11-30T06:09:41.056Z,11.70
2023-11-30T06:12:43.121Z,10.30
2023-11-30T06:15:45.355Z,11.10
2023-11-30T06:18:50.483Z,11.00
2023-11-30T06:21:55.356Z,10.20
2023-11-30T06:24:57.845Z,11.40
2023-11-30T06:28:17.791Z,11.30
2023-11-30T06:31:25.122Z,10.30
2023-11-30T06:34:30.661Z,10.50
2023-11-30T06:37:52.781Z,10.20
2023-11-30T06:40:54.678Z,10.40
2023-11-30T06:43:56.744Z,11.10
2023-11-30T06:47:18.817Z,9.50
2023-11-30T06:50:23.409Z,9.80
2023-11-30T06:53:25.679Z,9.60
2023-11-30T06:56:30.295Z,9.40
2023-11-30T06:59:35.309Z,8.70
2023-11-30T07:02:37.295Z,8.50
2023-11-30T07:05:44.975Z,8.60
2023-11-30T07:08:47.283Z,10.30
2023-11-30T07:11:50.025Z,10.60
2023-11-30T07:14:52.080Z,10.10
2023-11-30T07:17:54.585Z,10.20
2023-11-30T07:20:59.207Z,9.50
2023-11-30T07:24:01.321Z,11.30
2023-11-30T07:27:03.494Z,10.80
2023-11-30T07:30:09.618Z,10.50
2023-11-30T07:33:12.260Z,10.00
2023-11-30T07:36:17.287Z,10.30
2023-11-30T07:39:22.165Z,9.70
2023-11-30T07:42:34.972Z,9.50
2023-11-30T07:45:54.041Z,9.50
2023-11-30T07:49:08.109Z,9.20
2023-11-30T07:52:09.920Z,9.30
2023-11-30T07:58:13.315Z,9.10
2023-11-30T08:01:20.460Z,8.90
2023-11-30T08:04:23.420Z,9.20
2023-11-30T08:07:45.874Z,9.40
2023-11-30T08:11:10.684Z,9.50
2023-11-30T08:14:41.739Z,9.10
2023-11-30T08:18:03.990Z,9.00
2023-11-30T08:21:06.245Z,8.30
2023-11-30T08:24:16.071Z,8.10
2023-11-30T08:27:21.921Z,7.50
2023-11-30T08:30:26.853Z,8.40
2023-11-30T08:33:33.444Z,7.90
2023-11-30T08:36:40.154Z,7.60
2023-11-30T08:39:45.551Z,8.70
2023-11-30T08:42:47.479Z,8.70
2023-11-30T08:45:49.517Z,7.70
2023-11-30T08:48:51.603Z,8.20
2023-11-30T08:51:54.110Z,8.50
2023-11-30T08:54:56.851Z,7.70
2023-11-30T08:57:58.951Z,8.20
2023-11-30T09:01:01.058Z,6.80
2023-11-30T09:04:03.189Z,7.80
2023-11-30T09:07:05.151Z,7.50
2023-11-30T09:10:07.352Z,7.80
2023-11-30T09:13:09.265Z,7.70
2023-11-30T09:16:11.179Z,8.20
2023-11-30T09:19:13.140Z,7.30
2023-11-30T09:22:14.897Z,7.70
2023-11-30T09:25:16.653Z,7.80
2023-11-30T09:28:18.586Z,7.50
2023-11-30T09:31:20.390Z,7.60
2023-11-30T09:34:22.178Z,7.70
2023-11-30T09:37:23.859Z,7.40
2023-11-30T09:40:25.832Z,8.60
2023-11-30T09:43:27.553Z,7.90
2023-11-30T09:46:29.419Z,7.90
2023-11-30T09:49:31.285Z,7.40
2023-11-30T09:52:33.202Z,7.80
2023-11-30T09:55:36.218Z,7.80
2023-11-30T09:58:37.926Z,7.70
2023-11-30T10:01:39.857Z,7.30
2023-11-30T10:04:41.610Z,8.00
2023-11-30T10:07:43.955Z,7.40
2023-11-30T10:10:46.813Z,7.60
2023-11-30T10:13:48.494Z,7.90
2023-11-30T10:16:50.448Z,7.00
2023-11-30T10:19:52.374Z,6.80
2023-11-30T10:22:54.168Z,7.50
2023-11-30T10:25:56.474Z,6.90
2023-11-30T10:28:58.983Z,7.00
2023-11-30T10:32:03.778Z,7.70
2023-11-30T10:35:06.649Z,8.10
2023-11-30T10:38:09.181Z,7.80
2023-11-30T10:41:20.063Z,7.20
2023-11-30T10:44:32.000Z,7.30
2023-11-30T10:47:37.381Z,7.60
2023-11-30T10:50:40.205Z,7.30
2023-11-30T10:53:48.257Z,7.20
2023-11-30T10:57:19.704Z,7.10
2023-11-30T11:00:21.773Z,7.90
2023-11-30T11:03:23.972Z,8.00
2023-11-30T11:06:26.779Z,7.30
2023-11-30T11:09:45.216Z,7.60
2023-11-30T11:12:50.021Z,7.50
2023-11-30T11:15:59.517Z,7.10
2023-11-30T11:19:05.909Z,7.50
2023-11-30T11:22:35.918Z,7.10
2023-11-30T11:25:40.940Z,7.50
2023-11-30T11:28:42.908Z,7.10
2023-11-30T11:31:48.173Z,7.40
2023-11-30T11:34:49.880Z,7.80
2023-11-30T11:38:12.116Z,7.50
2023-11-30T11:41:16.530Z,7.40
2023-11-30T11:44:24.819Z,7.40
2023-11-30T11:47:43.278Z,7.90
2023-11-30T11:50:57.784Z,7.80
2023-11-30T11:53:59.716Z,7.00
2023-11-30T11:57:13.230Z,8.10
2023-11-30T12:00:16.327Z,7.70
2023-11-30T12:03:30.326Z,8.20
2023-11-30T12:06:32.338Z,7.70
2023-11-30T12:09:37.087Z,8.00
2023-11-30T12:13:02.799Z,7.50
2023-11-30T12:16:30.734Z,8.30
2023-11-30T12:19:55.976Z,8.40
2023-11-30T12:23:01.683Z,7.80
2023-11-30T12:26:03.934Z,7.90
2023-11-30T12:29:16.968Z,8.30
2023-11-30T12:32:22.110Z,7.80
2023-11-30T12:35:44.080Z,7.80
2023-11-30T12:39:09.026Z,8.30
2023-11-30T12:42:14.046Z,7.70
2023-11-30T12:45:19.144Z,7.90
2023-11-30T12:48:21.351Z,8.10
2023-11-30T12:51:43.661Z,8.30
2023-11-30T12:55:06.325Z,9.10
2023-11-30T12:58:11.859Z,9.50
2023-11-30T13:01:19.916Z,9.70
2023-11-30T13:04:22.979Z,8.40
2023-11-30T13:07:27.318Z,8.70
2023-11-30T13:10:54.938Z,7.90
2023-11-30T13:13:59.906Z,8.40
2023-11-30T13:18:42.911Z,9.00
2023-11-30T13:21:50.481Z,9.20
2023-11-30T13:24:54.633Z,9.10
2023-11-30T13:27:56.844Z,8.90
2023-11-30T13:31:01.379Z,9.30
2023-11-30T13:34:12.370Z,9.40
2023-11-30T13:37:23.518Z,10.30
2023-11-30T13:40:45.800Z,11.40
2023-11-30T13:43:50.960Z,15.20
2023-11-30T13:47:33.920Z,10.20
2023-11-30T13:50:42.126Z,11.40
2023-11-30T13:54:11.855Z,10.50
2023-11-30T13:57:16.638Z,10.10
2023-11-30T14:00:44.905Z,10.50
2023-11-30T14:03:50.166Z,16.30
2023-11-30T14:07:25.503Z,18.60
2023-11-30T14:10:36.042Z,11.50
2023-11-30T14:13:38.201Z,18.50
2023-11-30T14:17:20.615Z,15.50
2023-11-30T14:20:24.912Z,16.50
2023-11-30T14:23:29.901Z,17.30
2023-11-30T14:26:46.478Z,22.50
2023-11-30T14:30:12.172Z,15.70
2023-11-30T14:33:34.835Z,11.50
2023-11-30T14:36:42.942Z,12.10
2023-11-30T14:40:05.780Z,12.20
2023-11-30T14:43:33.895Z,12.30
2023-11-30T14:46:58.918Z,13.00
2023-11-30T14:50:24.493Z,13.30
2023-11-30T14:53:45.244Z,13.30
2023-11-30T14:57:10.437Z,15.40
2023-11-30T15:00:56.639Z,16.20
2023-11-30T15:04:41.292Z,14.00
2023-11-30T15:07:49.198Z,12.30
2023-11-30T15:13:48.090Z,12.90
2023-11-30T15:16:50.170Z,12.00
2023-11-30T15:19:55.488Z,11.50
2023-11-30T15:22:57.477Z,31.70
2023-11-30T15:26:19.931Z,53.30
2023-11-30T15:29:28.321Z,30.00
2023-11-30T15:32:58.089Z,23.40
2023-11-30T15:36:13.857Z,19.60
2023-11-30T15:39:30.120Z,19.80
2023-11-30T15:42:52.436Z,21.70
2023-11-30T15:45:57.436Z,24.10
2023-11-30T15:49:12.040Z,46.40
2023-11-30T15:52:39.707Z,52.50
2023-11-30T15:55:45.166Z,41.30
2023-11-30T15:59:30.940Z,35.00
2023-11-30T16:02:48.896Z,36.70
2023-11-30T16:06:28.714Z,37.90
2023-11-30T16:09:30.987Z,33.50
2023-11-30T16:13:00.658Z,31.70
2023-11-30T16:16:31.702Z,59.20
2023-11-30T16:20:14.013Z,39.70
2023-11-30T16:23:39.367Z,40.00
2023-11-30T16:27:21.848Z,48.50
2023-11-30T16:30:54.218Z,52.30
2023-11-30T16:34:01.779Z,33.20
2023-11-30T16:37:44.091Z,31.30
2023-11-30T16:45:26.280Z,28.10
2023-11-30T16:48:56.060Z,26.20
2023-11-30T16:52:08.481Z,26.20
2023-11-30T16:55:36.660Z,27.00
2023-11-30T16:59:07.099Z,28.70
2023-11-30T17:02:35.020Z,33.10
2023-11-30T17:05:45.661Z,37.30
2023-11-30T17:09:40.775Z,44.60
2023-11-30T17:13:12.418Z,59.00
2023-11-30T17:16:54.852Z,59.50
2023-11-30T17:20:56.023Z,59.60
2023-11-30T17:24:41.619Z,48.60
2023-11-30T17:28:27.281Z,43.40
2023-11-30T17:32:01.265Z,33.30
2023-11-30T17:35:43.863Z,35.30
2023-11-30T17:39:29.833Z,30.80
2023-11-30T17:43:15.082Z,31.30
2023-11-30T17:46:57.424Z,30.00
2023-11-30T17:50:31.937Z,32.40
2023-11-30T17:53:57.033Z,31.40
2023-11-30T17:57:30.741Z,31.70
2023-11-30T18:01:33.128Z,30.70
2023-11-30T18:05:18.903Z,31.20
2023-11-30T18:09:01.286Z,33.60
2023-11-30T18:12:23.509Z,36.00
2023-11-30T18:15:55.587Z,35.70
2023-11-30T18:19:38.131Z,38.40
2023-11-30T18:23:40.481Z,30.50
2023-11-30T18:31:08.149Z,37.90
2023-11-30T18:35:18.998Z,40.50
2023-11-30T18:39:21.607Z,43.40
2023-11-30T18:42:47.191Z,39.50
2023-11-30T18:46:33.620Z,32.90
2023-11-30T18:50:36.054Z,30.80
2023-11-30T18:54:38.430Z,32.60
2023-11-30T19:01:38.622Z,37.30
2023-11-30T19:05:30.858Z,34.50
2023-11-30T19:09:14.263Z,36.20
2023-11-30T19:12:36.605Z,37.20
2023-11-30T19:16:01.594Z,43.50
2023-11-30T19:19:35.638Z,43.00
2023-11-30T19:23:07.897Z,36.80
2023-11-30T19:30:32.547Z,38.60
2023-11-30T19:33:57.745Z,39.40
2023-11-30T19:37:22.560Z,65.30
2023-11-30T19:40:52.030Z,53.20
2023-11-30T19:43:53.934Z,54.50
2023-11-30T19:47:24.260Z,59.90
2023-11-30T19:50:52.111Z,42.60
2023-11-30T19:54:14.796Z,38.40
2023-11-30T19:57:16.734Z,40.40
2023-11-30T20:04:19.757Z,39.60
2023-11-30T20:07:21.841Z,40.00
2023-11-30T20:10:50.623Z,39.80
2023-11-30T20:14:11.569Z,41.70
2023-11-30T20:17:23.516Z,42.60
2023-11-30T20:21:08.259Z,40.90
2023-11-30T20:24:50.640Z,45.20
2023-11-30T20:28:13.527Z,43.50
2023-11-30T20:31:47.585Z,43.50
2023-11-30T20:35:50.110Z,48.10
2023-11-30T20:39:32.738Z,55.00
2023-11-30T20:42:57.230Z,62.10
2023-11-30T20:46:45.197Z,51.60
2023-11-30T20:50:30.969Z,50.50
2023-11-30T20:53:53.412Z,50.50
2023-11-30T20:57:38.200Z,53.00
2023-11-30T21:00:52.457Z,49.60
2023-11-30T21:04:20.937Z,54.50
2023-11-30T21:08:06.413Z,53.00
2023-11-30T21:11:48.784Z,52.30
2023-11-30T21:15:51.463Z,50.10
2023-11-30T21:19:35.879Z,46.60
2023-11-30T21:23:28.256Z,42.60
2023-11-30T21:27:12.509Z,43.30
2023-11-30T21:30:54.957Z,42.20
2023-11-30T21:34:40.148Z,41.30
2023-11-30T21:38:09.560Z,42.50
2023-11-30T21:42:01.599Z,43.30
2023-11-30T21:45:27.268Z,44.40
2023-11-30T21:48:58.976Z,37.30
2023-11-30T21:52:44.534Z,39.30
2023-11-30T21:56:46.909Z,42.20
2023-11-30T22:03:31.390Z,43.00
2023-11-30T22:07:33.780Z,46.80
2023-11-30T22:11:09.230Z,44.40
2023-11-30T22:14:54.279Z,43.60
2023-11-30T22:18:45.930Z,42.40
2023-11-30T22:22:28.405Z,46.40
2023-11-30T22:25:58.799Z,43.20
2023-11-30T22:29:46.370Z,40.20
2023-11-30T22:33:31.877Z,47.10
2023-11-30T22:36:56.315Z,45.60
2023-11-30T22:40:10.757Z,47.70
2023-11-30T22:43:32.806Z,47.00
2023-11-30T22:46:55.957Z,47.70
2023-11-30T22:50:41.132Z,47.20
2023-11-30T22:54:08.844Z,48.60
2023-11-30T22:57:47.878Z,48.30
2023-11-30T23:01:10.271Z,46.70
2023-11-30T23:04:16.385Z,49.20
2023-11-30T23:08:03.716Z,48.00
2023-11-30T23:11:40.096Z,48.40
2023-11-30T23:15:05.148Z,49.00
2023-11-30T23:18:42.573Z,51.50
2023-11-30T23:22:35.649Z,52.00
2023-11-30T23:29:42.663Z,50.80
2023-11-30T23:33:45.168Z,53.20
2023-11-30T23:36:57.896Z,49.00
2023-11-30T23:40:26.136Z,46.50
2023-11-30T23:44:01.011Z,46.00
2023-11-30T23:51:13.469Z,46.00
2023-11-30T23:54:35.676Z,49.80
2023-11-30T23:58:07.431Z,48.20
